createdAt,value
2023-01-05T00:02:37.546Z,101387.97
2023-01-05T00:05:39.971Z,101393.44
2023-01-05T00:08:42.940Z,101384.16
2023-01-05T00:12:06.397Z,101358.19
2023-01-05T00:15:30.865Z,101373.19
2023-01-05T00:18:53.359Z,101363.03
2023-01-05T00:22:16.329Z,101360.88
2023-01-05T00:25:22.224Z,101352.59
2023-01-05T00:28:26.337Z,101361.06
2023-01-05T00:31:28.671Z,101350.72
2023-01-05T00:34:30.771Z,101340.06
2023-01-05T00:37:34.752Z,101349.56
2023-01-05T00:40:37.033Z,101335.34
2023-01-05T00:43:39.140Z,101333.50
2023-01-05T00:46:41.761Z,101311.00
2023-01-05T00:49:45.264Z,101309.66
2023-01-05T00:52:48.074Z,101321.81
2023-01-05T00:56:01.335Z,101303.91
2023-01-05T00:59:06.803Z,101300.03
2023-01-05T01:02:13.819Z,101295.63
2023-01-05T01:05:16.120Z,101289.88
2023-01-05T01:08:21.045Z,101296.47
2023-01-05T01:11:25.317Z,101295.31
2023-01-05T01:14:27.700Z,101281.44
2023-01-05T01:17:32.656Z,101275.72
2023-01-05T01:20:34.742Z,101259.34
2023-01-05T01:23:38.080Z,101269.78
2023-01-05T01:26:40.341Z,101271.97
2023-01-05T01:29:42.396Z,101245.63
2023-01-05T01:32:44.500Z,101242.09
2023-01-05T01:35:46.572Z,101210.16
2023-01-05T01:38:49.368Z,101214.72
2023-01-05T01:41:52.678Z,101199.19
2023-01-05T01:45:12.387Z,101189.72
2023-01-05T01:48:17.995Z,101206.97
2023-01-05T01:51:33.931Z,101197.97
2023-01-05T01:54:37.362Z,101185.28
2023-01-05T01:57:42.523Z,101187.34
2023-01-05T02:00:46.263Z,101177.69
2023-01-05T02:03:48.654Z,101167.91
2023-01-05T02:06:53.078Z,101169.41
2023-01-05T02:09:55.367Z,101183.75
2023-01-05T02:13:36.440Z,101158.59
2023-01-05T02:16:58.234Z,101165.03
2023-01-05T02:20:22.547Z,101160.28
2023-01-05T02:23:55.010Z,101154.03
2023-01-05T02:27:13.605Z,101139.16
2023-01-05T02:30:35.094Z,101126.03
2023-01-05T02:33:55.726Z,101118.59
2023-01-05T02:37:36.913Z,101124.69
2023-01-05T02:40:50.387Z,101099.53
2023-01-05T02:43:56.582Z,101092.63
2023-01-05T02:47:07.774Z,101077.31
2023-01-05T02:50:15.999Z,101082.88
2023-01-05T02:53:24.611Z,101078.13
2023-01-05T02:56:46.838Z,101052.84
2023-01-05T02:59:54.524Z,101052.84
2023-01-05T03:03:04.472Z,101038.03
2023-01-05T03:06:21.933Z,101061.47
2023-01-05T03:09:29.629Z,101064.50
2023-01-05T03:12:53.830Z,101022.66
2023-01-05T03:16:02.199Z,101032.25
2023-01-05T03:19:29.142Z,101032.09
2023-01-05T03:22:51.565Z,101019.63
2023-01-05T03:26:14.961Z,101040.56
2023-01-05T03:29:36.116Z,101025.38
2023-01-05T03:33:28.838Z,101041.91
2023-01-05T03:36:39.829Z,101037.69
2023-01-05T03:39:47.317Z,101046.13
2023-01-05T03:42:51.474Z,101041.22
2023-01-05T03:45:57.326Z,101010.69
2023-01-05T03:49:07.097Z,101005.78
2023-01-05T03:52:09.827Z,101007.28
2023-01-05T03:55:15.679Z,101016.91
2023-01-05T03:58:18.643Z,100986.22
2023-01-05T04:01:24.287Z,100995.84
2023-01-05T04:04:27.863Z,100993.81
2023-01-05T04:07:30.132Z,100992.63
2023-01-05T04:10:34.709Z,100964.16
2023-01-05T04:13:37.430Z,100972.41
2023-01-05T04:16:40.228Z,100976.66
2023-01-05T04:19:51.903Z,100974.13
2023-01-05T04:22:54.524Z,100957.97
2023-01-05T04:25:58.568Z,100969.06
2023-01-05T04:29:01.267Z,100957.59
2023-01-05T04:32:07.980Z,100964.16
2023-01-05T04:35:11.661Z,100946.47
2023-01-05T04:38:15.959Z,100962.97
2023-01-05T04:41:19.768Z,100965.69
2023-01-05T04:44:25.441Z,100950.84
2023-01-05T04:47:29.260Z,100949.69
2023-01-05T04:50:32.133Z,100940.75
2023-01-05T04:53:35.561Z,100948.16
2023-01-05T04:56:39.513Z,100954.38
2023-01-05T04:59:43.870Z,100946.00
2023-01-05T05:02:47.271Z,100942.78
2023-01-05T05:05:50.474Z,100922.22
2023-01-05T05:08:52.839Z,100902.16
2023-01-05T05:11:56.787Z,100903.19
2023-01-05T05:15:01.959Z,100888.66
2023-01-05T05:18:09.253Z,100889.69
2023-01-05T05:21:16.709Z,100866.94
2023-01-05T05:24:19.264Z,100863.75
2023-01-05T05:27:22.388Z,100865.59
2023-01-05T05:30:24.521Z,100846.56
2023-01-05T05:33:28.347Z,100858.00
2023-01-05T05:36:30.364Z,100833.94
2023-01-05T05:39:32.464Z,100832.56
2023-01-05T05:42:34.593Z,100829.50
2023-01-05T05:45:36.689Z,100817.88
2023-01-05T05:48:39.480Z,100807.88
2023-01-05T05:51:41.785Z,100800.56
2023-01-05T05:54:43.848Z,100797.38
2023-01-05T05:57:46.037Z,100790.28
2023-01-05T06:00:48.254Z,100783.09
2023-01-05T06:03:50.387Z,100788.81
2023-01-05T06:06:52.460Z,100791.66
2023-01-05T06:09:54.641Z,100784.63
2023-01-05T06:12:57.038Z,100778.22
2023-01-05T06:15:59.098Z,100774.34
2023-01-05T06:19:01.289Z,100738.69
2023-01-05T06:22:04.538Z,100739.13
2023-01-05T06:25:06.975Z,100764.03
2023-01-05T06:28:09.465Z,100758.22
2023-01-05T06:31:12.887Z,100757.59
2023-01-05T06:34:15.120Z,100744.38
2023-01-05T06:37:17.298Z,100755.94
2023-01-05T06:40:19.908Z,100736.69
2023-01-05T06:43:24.872Z,100733.41
2023-01-05T06:46:29.371Z,100729.94
2023-01-05T06:49:31.544Z,100729.38
2023-01-05T06:52:37.182Z,100730.81
2023-01-05T06:58:38.436Z,100716.44
2023-01-05T07:01:40.592Z,100701.28
2023-01-05T07:04:43.447Z,100692.19
2023-01-05T07:07:45.517Z,100716.88
2023-01-05T07:10:47.792Z,100721.47
2023-01-05T07:13:57.398Z,100719.22
2023-01-05T07:16:59.743Z,100714.66
2023-01-05T07:20:02.672Z,100711.13
2023-01-05T07:23:13.447Z,100697.25
2023-01-05T07:26:16.552Z,100712.59
2023-01-05T07:29:18.784Z,100715.69
2023-01-05T07:32:20.930Z,100719.28
2023-01-05T07:35:23.123Z,100695.84
2023-01-05T07:38:25.284Z,100692.03
2023-01-05T07:41:29.859Z,100697.13
2023-01-05T07:47:55.503Z,100699.41
2023-01-05T07:51:06.485Z,100714.06
2023-01-05T07:54:09.148Z,100715.28
2023-01-05T07:57:11.146Z,100709.47
2023-01-05T08:00:15.526Z,100717.22
2023-01-05T08:03:17.761Z,100717.09
2023-01-05T08:06:21.695Z,100701.66
2023-01-05T08:09:43.586Z,100721.69
2023-01-05T08:13:04.510Z,100706.56
2023-01-05T08:16:06.923Z,100696.84
2023-01-05T08:19:13.997Z,100705.59
2023-01-05T08:22:17.346Z,100675.09
2023-01-05T08:25:21.468Z,100676.72
2023-01-05T08:28:29.937Z,100638.81
2023-01-05T08:31:39.496Z,100633.06
2023-01-05T08:34:55.231Z,100686.69
2023-01-05T08:37:57.966Z,100683.78
2023-01-05T08:41:01.152Z,100664.63
2023-01-05T08:44:06.346Z,100662.00
2023-01-05T08:47:09.038Z,100656.06
2023-01-05T08:50:12.062Z,100650.28
2023-01-05T08:53:15.959Z,100656.06
2023-01-05T08:56:21.457Z,100646.53
2023-01-05T08:59:24.600Z,100609.19
2023-01-05T09:02:27.039Z,100590.88
2023-01-05T09:05:30.932Z,100604.09
2023-01-05T09:08:34.127Z,100598.44
2023-01-05T09:11:36.732Z,100571.63
2023-01-05T09:14:52.176Z,100569.69
2023-01-05T09:17:56.182Z,100573.63
2023-01-05T09:21:01.530Z,100575.63
2023-01-05T09:24:04.260Z,100561.63
2023-01-05T09:27:09.296Z,100530.81
2023-01-05T09:30:12.062Z,100533.59
2023-01-05T09:33:15.196Z,100545.69
2023-01-05T09:36:19.895Z,100524.94
2023-01-05T09:39:24.939Z,100527.06
2023-01-05T09:42:31.577Z,100505.31
2023-01-05T09:45:33.933Z,100493.94
2023-01-05T09:48:47.301Z,100486.97
2023-01-05T09:51:55.228Z,100473.03
2023-01-05T09:55:00.487Z,100472.69
2023-01-05T09:58:12.780Z,100466.38
2023-01-05T10:01:17.782Z,100474.78
2023-01-05T10:04:30.074Z,100469.13
2023-01-05T10:07:39.049Z,100463.91
2023-01-05T10:11:36.323Z,100469.81
2023-01-05T10:14:46.369Z,100476.72
2023-01-05T10:17:48.734Z,100479.13
2023-01-05T10:20:59.886Z,100456.81
2023-01-05T10:24:08.200Z,100458.91
2023-01-05T10:27:27.857Z,100437.34
2023-01-05T10:30:57.658Z,100428.66
2023-01-05T10:34:23.558Z,100422.31
2023-01-05T10:37:42.766Z,100403.31
2023-01-05T10:41:09.069Z,100420.66
2023-01-05T10:44:53.498Z,100436.03
2023-01-05T10:47:56.144Z,100411.91
2023-01-05T10:50:59.698Z,100425.41
2023-01-05T10:54:03.970Z,100408.69
2023-01-05T10:57:36.625Z,100416.53
2023-01-05T11:00:41.976Z,100413.50
2023-01-05T11:04:25.249Z,100418.97
2023-01-05T11:07:11.990Z,100393.03
2023-01-05T11:10:33.365Z,100394.53
2023-01-05T11:13:42.926Z,100400.47
2023-01-05T11:16:52.262Z,100394.75
2023-01-05T11:19:56.380Z,100382.09
2023-01-05T11:22:59.054Z,100379.25
2023-01-05T11:26:19.129Z,100377.09
2023-01-05T11:29:22.026Z,100368.81
2023-01-05T11:32:27.221Z,100361.41
2023-01-05T11:35:38.131Z,100354.16
2023-01-05T11:38:40.738Z,100352.63
2023-01-05T11:41:44.423Z,100334.41
2023-01-05T11:45:01.870Z,100335.22
2023-01-05T11:48:10.061Z,100336.28
2023-01-05T11:51:36.692Z,100339.88
2023-01-05T11:54:39.519Z,100327.34
2023-01-05T11:57:41.622Z,100325.56
2023-01-05T12:01:08.312Z,100326.34
2023-01-05T12:04:25.430Z,100327.84
2023-01-05T12:07:37.088Z,100318.34
2023-01-05T12:11:11.706Z,100319.72
2023-01-05T12:14:35.031Z,100319.09
2023-01-05T12:17:59.424Z,100315.38
2023-01-05T12:21:21.089Z,100318.25
2023-01-05T12:24:50.748Z,100318.56
2023-01-05T12:28:10.904Z,100331.03
2023-01-05T12:35:37.585Z,100308.00
2023-01-05T12:39:11.405Z,100277.88
2023-01-05T12:42:33.779Z,100287.81
2023-01-05T12:46:00.280Z,100314.59
2023-01-05T12:49:28.444Z,100320.13
2023-01-05T12:52:49.975Z,100296.03
2023-01-05T12:56:02.795Z,100313.50
2023-01-05T12:59:50.505Z,100306.06
2023-01-05T13:03:09.826Z,100299.44
2023-01-05T13:06:24.519Z,100285.84
2023-01-05T13:09:36.504Z,100278.22
2023-01-05T13:12:43.836Z,100265.94
2023-01-05T13:15:59.192Z,100284.31
2023-01-05T13:19:25.014Z,100284.53
2023-01-05T13:22:34.617Z,100280.03
2023-01-05T13:25:49.684Z,100262.84
2023-01-05T13:28:55.954Z,100291.88
2023-01-05T13:32:08.139Z,100274.28
2023-01-05T13:35:53.475Z,100289.19
2023-01-05T13:39:16.169Z,100287.47
2023-01-05T13:43:05.549Z,100305.09
2023-01-05T13:46:39.032Z,100294.13
2023-01-05T13:50:11.421Z,100310.63
2023-01-05T13:53:24.982Z,100309.75
2023-01-05T13:56:51.425Z,100295.38
2023-01-05T14:00:06.640Z,100308.25
2023-01-05T14:03:27.577Z,100275.94
2023-01-05T14:06:38.338Z,100290.25
2023-01-05T14:09:58.429Z,100294.75
2023-01-05T14:13:02.093Z,100287.69
2023-01-05T14:16:41.410Z,100284.47
2023-01-05T14:19:59.278Z,100287.19
2023-01-05T14:23:29.886Z,100277.13
2023-01-05T14:27:10.702Z,100293.66
2023-01-05T14:30:43.227Z,100274.75
2023-01-05T14:34:14.688Z,100238.69
2023-01-05T14:37:40.165Z,100294.97
2023-01-05T14:40:46.876Z,100289.88
2023-01-05T14:43:59.955Z,100291.56
2023-01-05T14:47:03.239Z,100270.13
2023-01-05T14:50:07.354Z,100296.50
2023-01-05T14:53:43.402Z,100300.69
2023-01-05T14:57:20.765Z,100264.56
2023-01-05T15:01:03.275Z,100316.22
2023-01-05T15:04:18.039Z,100305.78
2023-01-05T15:11:11.805Z,100315.28
2023-01-05T15:14:37.841Z,100315.53
2023-01-05T15:17:59.971Z,100308.28
2023-01-05T15:21:19.676Z,100300.13
2023-01-05T15:24:42.771Z,100320.63
2023-01-05T15:28:24.558Z,100318.19
2023-01-05T15:31:49.053Z,100329.97
2023-01-05T15:34:54.133Z,100323.47
2023-01-05T15:37:56.371Z,100323.50
2023-01-05T15:41:22.807Z,100321.16
2023-01-05T15:44:37.552Z,100330.59
2023-01-05T15:47:40.559Z,100314.38
2023-01-05T15:50:48.736Z,100337.69
2023-01-05T15:54:10.305Z,100298.28
2023-01-05T15:57:23.614Z,100328.88
2023-01-05T16:00:30.208Z,100325.22
2023-01-05T16:03:38.673Z,100323.72
2023-01-05T16:06:41.300Z,100319.75
2023-01-05T16:09:50.876Z,100314.69
2023-01-05T16:12:59.110Z,100318.94
2023-01-05T16:16:07.163Z,100319.19
2023-01-05T16:19:42.745Z,100329.16
2023-01-05T16:23:08.737Z,100345.22
2023-01-05T16:26:18.210Z,100349.97
2023-01-05T16:29:49.809Z,100346.09
2023-01-05T16:33:03.813Z,100331.31
2023-01-05T16:36:20.208Z,100323.56
2023-01-05T16:39:24.955Z,100322.41
2023-01-05T16:42:40.740Z,100320.28
2023-01-05T16:45:43.181Z,100330.72
2023-01-05T16:48:50.292Z,100331.97
2023-01-05T16:51:53.440Z,100329.72
2023-01-05T16:55:27.591Z,100323.69
2023-01-05T16:58:31.166Z,100349.91
2023-01-05T17:01:43.151Z,100351.50
2023-01-05T17:04:48.050Z,100328.03
2023-01-05T17:07:59.820Z,100322.28
2023-01-05T17:11:04.428Z,100320.28
2023-01-05T17:14:07.873Z,100344.81
2023-01-05T17:17:30.157Z,100355.47
2023-01-05T17:20:44.386Z,100347.28
2023-01-05T17:23:54.719Z,100335.47
2023-01-05T17:26:57.703Z,100339.13
2023-01-05T17:30:00.710Z,100357.47
2023-01-05T17:33:03.243Z,100355.13
2023-01-05T17:36:06.055Z,100343.53
2023-01-05T17:39:21.128Z,100385.63
2023-01-05T17:42:43.827Z,100367.44
2023-01-05T17:45:47.480Z,100390.84
2023-01-05T17:48:49.678Z,100377.69
2023-01-05T17:51:52.275Z,100375.06
2023-01-05T17:54:54.510Z,100396.16
2023-01-05T17:57:58.181Z,100403.69
2023-01-05T18:01:00.246Z,100398.16
2023-01-05T18:04:03.526Z,100405.69
2023-01-05T18:10:20.157Z,100411.66
2023-01-05T18:13:24.613Z,100419.81
2023-01-05T18:19:33.795Z,100415.03
2023-01-05T18:22:40.929Z,100417.78
2023-01-05T18:29:02.316Z,100424.50
2023-01-05T18:32:05.636Z,100414.91
2023-01-05T18:35:10.618Z,100422.41
2023-01-05T18:38:13.789Z,100416.81
2023-01-05T18:41:15.840Z,100421.00
2023-01-05T18:44:19.299Z,100432.28
2023-01-05T18:47:21.309Z,100431.22
2023-01-05T18:50:25.202Z,100416.41
2023-01-05T18:53:27.321Z,100421.22
2023-01-05T18:56:29.378Z,100411.22
2023-01-05T18:59:31.789Z,100405.97
2023-01-05T19:02:33.891Z,100419.94
2023-01-05T19:05:41.974Z,100400.25
2023-01-05T19:08:44.891Z,100401.25
2023-01-05T19:11:48.579Z,100411.03
2023-01-05T19:14:57.378Z,100427.22
2023-01-05T19:18:02.959Z,100412.38
2023-01-05T19:21:08.320Z,100411.53
2023-01-05T19:24:18.227Z,100425.72
2023-01-05T19:27:28.300Z,100420.34
2023-01-05T19:30:32.728Z,100421.00
2023-01-05T19:33:37.461Z,100407.41
2023-01-05T19:36:39.594Z,100423.91
2023-01-05T19:39:41.987Z,100424.94
2023-01-05T19:42:44.737Z,100410.13
2023-01-05T19:45:49.065Z,100440.78
2023-01-05T19:48:52.428Z,100443.09
2023-01-05T19:51:56.404Z,100432.19
2023-01-05T19:54:58.806Z,100443.31
2023-01-05T19:58:00.943Z,100437.47
2023-01-05T20:01:16.403Z,100436.19
2023-01-05T20:04:18.630Z,100442.09
2023-01-05T20:07:25.147Z,100442.31
2023-01-05T20:10:27.200Z,100438.78
2023-01-05T20:13:29.362Z,100449.00
2023-01-05T20:16:33.102Z,100446.50
2023-01-05T20:19:39.593Z,100435.63
2023-01-05T20:22:45.055Z,100433.75
2023-01-05T20:25:47.632Z,100445.88
2023-01-05T20:28:50.863Z,100455.25
2023-01-05T20:31:58.156Z,100453.94
2023-01-05T20:35:00.746Z,100460.25
2023-01-05T20:38:03.452Z,100447.13
2023-01-05T20:41:20.370Z,100460.91
2023-01-05T20:44:27.956Z,100464.25
2023-01-05T20:47:39.437Z,100469.41
2023-01-05T20:50:49.336Z,100467.94
2023-01-05T20:53:53.146Z,100482.09
2023-01-05T20:56:55.811Z,100479.41
2023-01-05T20:59:58.128Z,100478.38
2023-01-05T21:03:00.411Z,100476.91
2023-01-05T21:06:02.612Z,100473.38
2023-01-05T21:09:10.910Z,100484.50
2023-01-05T21:12:15.378Z,100488.66
2023-01-05T21:15:21.539Z,100484.91
2023-01-05T21:18:24.783Z,100489.28
2023-01-05T21:21:28.672Z,100494.13
2023-01-05T21:24:32.006Z,100482.41
2023-01-05T21:27:35.912Z,100478.88
2023-01-05T21:30:38.648Z,100485.31
2023-01-05T21:33:41.849Z,100479.94
2023-01-05T21:36:49.053Z,100469.06
2023-01-05T21:39:51.157Z,100475.31
2023-01-05T21:42:54.670Z,100468.19
2023-01-05T21:45:57.572Z,100439.38
2023-01-05T21:49:00.023Z,100498.09
2023-01-05T21:52:25.442Z,100474.91
2023-01-05T21:55:46.894Z,100482.22
2023-01-05T21:58:50.352Z,100498.91
2023-01-05T22:01:53.497Z,100486.59
2023-01-05T22:04:59.515Z,100517.91
2023-01-05T22:08:01.578Z,100503.06
2023-01-05T22:11:05.165Z,100516.34
2023-01-05T22:14:08.794Z,100508.00
2023-01-05T22:17:12.107Z,100507.13
2023-01-05T22:20:16.180Z,100517.16
2023-01-05T22:23:18.656Z,100515.28
2023-01-05T22:26:22.685Z,100510.88
2023-01-05T22:29:27.624Z,100516.91
2023-01-05T22:32:30.798Z,100497.88
2023-01-05T22:35:34.057Z,100531.13
2023-01-05T22:38:38.925Z,100532.56
2023-01-05T22:41:41.432Z,100531.94
2023-01-05T22:44:43.676Z,100528.38
2023-01-05T22:47:45.710Z,100531.50
2023-01-05T22:50:48.626Z,100525.25
2023-01-05T22:53:51.729Z,100542.00
2023-01-05T22:56:55.570Z,100542.84
2023-01-05T22:59:57.583Z,100521.78
2023-01-05T23:03:01.068Z,100544.19
2023-01-05T23:06:06.601Z,100526.38
2023-01-05T23:09:13.389Z,100498.84
2023-01-05T23:12:15.836Z,100547.34
2023-01-05T23:15:18.510Z,100533.59
2023-01-05T23:18:23.024Z,100523.75
2023-01-05T23:21:27.172Z,100512.25
2023-01-05T23:24:30.112Z,100527.31
2023-01-05T23:27:35.024Z,100533.56
2023-01-05T23:30:42.150Z,100504.44
2023-01-05T23:33:46.893Z,100529.97
2023-01-05T23:37:01.772Z,100514.00
2023-01-05T23:40:07.496Z,100555.84
2023-01-05T23:43:14.087Z,100542.91
2023-01-05T23:46:20.832Z,100537.22
2023-01-05T23:49:23.556Z,100554.63
2023-01-05T23:52:25.547Z,100532.69
2023-01-05T23:55:28.074Z,100573.66
2023-01-05T23:58:32.628Z,100581.19
